createdAt,value
2023-03-22T00:01:46.550Z,11.28
2023-03-22T00:04:51.555Z,11.30
2023-03-22T00:08:00.714Z,11.17
2023-03-22T00:11:07.095Z,11.18
2023-03-22T00:14:12.715Z,11.13
2023-03-22T00:17:18.838Z,11.24
2023-03-22T00:20:24.311Z,11.16
2023-03-22T00:23:30.233Z,11.09
2023-03-22T00:26:36.469Z,11.01
2023-03-22T00:29:42.725Z,11.16
2023-03-22T00:32:48.273Z,11.23
2023-03-22T00:35:58.220Z,11.35
2023-03-22T00:39:03.962Z,11.42
2023-03-22T00:42:09.248Z,11.46
2023-03-22T00:45:14.960Z,11.34
2023-03-22T00:48:21.118Z,11.31
2023-03-22T00:51:26.667Z,11.11
2023-03-22T00:54:32.149Z,11.05
2023-03-22T00:57:38.202Z,11.04
2023-03-22T01:00:45.592Z,11.10
2023-03-22T01:03:51.681Z,11.14
2023-03-22T01:07:01.947Z,10.98
2023-03-22T01:10:08.534Z,11.01
2023-03-22T01:13:17.885Z,10.94
2023-03-22T01:16:24.050Z,10.94
2023-03-22T01:19:29.869Z,11.01
2023-03-22T01:22:36.116Z,11.05
2023-03-22T01:25:41.626Z,10.99
2023-03-22T01:28:47.763Z,11.05
2023-03-22T01:31:53.687Z,11.07
2023-03-22T01:34:59.089Z,11.04
2023-03-22T01:38:07.848Z,11.01
2023-03-22T01:41:18.566Z,10.87
2023-03-22T01:44:25.218Z,10.80
2023-03-22T01:47:34.807Z,10.79
2023-03-22T01:50:45.234Z,10.63
2023-03-22T01:54:00.698Z,10.57
2023-03-22T01:57:07.060Z,10.67
2023-03-22T02:00:45.532Z,10.59
2023-03-22T02:04:12.707Z,10.57
2023-03-22T02:12:57.864Z,10.41
2023-03-22T02:16:56.000Z,10.43
2023-03-22T02:20:11.349Z,10.16
2023-03-22T02:23:32.026Z,10.26
2023-03-22T02:27:05.296Z,10.33
2023-03-22T03:23:21.214Z,9.93
2023-03-22T03:27:17.812Z,9.76
2023-03-22T03:30:41.239Z,9.86
2023-03-22T03:34:02.309Z,9.69
2023-03-22T03:37:16.219Z,9.76
2023-03-22T03:40:29.262Z,9.81
2023-03-22T03:43:37.362Z,9.80
2023-03-22T03:46:45.809Z,9.81
2023-03-22T03:49:51.464Z,9.95
2023-03-22T03:52:57.305Z,9.75
2023-03-22T03:56:02.511Z,9.74
2023-03-22T03:59:19.378Z,9.70
2023-03-22T04:02:26.918Z,9.68
2023-03-22T04:05:35.857Z,9.58
2023-03-22T04:08:41.664Z,9.69
2023-03-22T04:11:47.716Z,9.71
2023-03-22T04:14:56.395Z,9.69
2023-03-22T04:18:05.694Z,9.77
2023-03-22T04:21:12.537Z,9.69
2023-03-22T04:24:25.482Z,9.71
2023-03-22T04:27:31.130Z,9.75
2023-03-22T04:30:52.402Z,9.73
2023-03-22T04:34:20.797Z,9.73
2023-03-22T04:37:38.850Z,9.64
2023-03-22T04:40:53.959Z,9.76
2023-03-22T04:44:09.470Z,9.61
2023-03-22T04:47:20.003Z,9.59
2023-03-22T04:50:28.406Z,9.33
2023-03-22T04:53:41.423Z,9.54
2023-03-22T04:56:48.813Z,9.60
2023-03-22T04:59:56.306Z,9.33
2023-03-22T05:03:04.360Z,9.22
2023-03-22T05:06:19.102Z,9.46
2023-03-22T05:09:36.335Z,9.42
2023-03-22T05:12:41.886Z,9.43
2023-03-22T05:16:11.070Z,9.53
2023-03-22T05:19:24.778Z,9.55
2023-03-22T05:22:30.980Z,9.63
2023-03-22T05:25:38.509Z,9.58
2023-03-22T05:28:44.641Z,9.61
2023-03-22T05:32:18.736Z,9.52
2023-03-22T05:35:27.246Z,9.50
2023-03-22T05:38:34.877Z,9.31
2023-03-22T05:41:43.109Z,9.38
2023-03-22T05:44:48.696Z,9.61
2023-03-22T05:47:55.532Z,9.56
2023-03-22T05:51:01.115Z,9.50
2023-03-22T05:54:09.812Z,9.49
2023-03-22T05:57:21.877Z,9.32
2023-03-22T06:00:32.257Z,9.40
2023-03-22T06:04:13.170Z,9.38
2023-03-22T06:07:41.891Z,9.57
2023-03-22T06:10:54.952Z,9.64
2023-03-22T06:14:00.509Z,9.68
2023-03-22T06:17:16.215Z,9.68
2023-03-22T06:20:23.256Z,9.71
2023-03-22T06:23:34.710Z,9.61
2023-03-22T06:26:41.114Z,9.64
2023-03-22T06:29:51.144Z,9.69
2023-03-22T06:33:05.324Z,9.83
2023-03-22T06:36:14.063Z,10.10
2023-03-22T06:39:37.897Z,10.16
2023-03-22T06:42:43.565Z,10.30
2023-03-22T06:45:51.482Z,10.35
2023-03-22T06:49:03.209Z,10.51
2023-03-22T06:52:08.650Z,10.56
2023-03-22T06:55:15.187Z,10.54
2023-03-22T06:58:20.726Z,10.72
2023-03-22T07:01:25.917Z,10.65
2023-03-22T07:04:33.505Z,10.71
2023-03-22T07:07:39.244Z,10.87
2023-03-22T07:10:51.030Z,10.92
2023-03-22T07:13:58.928Z,11.07
2023-03-22T07:17:12.798Z,11.29
2023-03-22T07:20:20.127Z,11.40
2023-03-22T07:23:27.276Z,11.53
2023-03-22T07:26:39.140Z,11.74
2023-03-22T07:29:44.601Z,11.85
2023-03-22T07:32:50.651Z,12.00
2023-03-22T07:35:57.638Z,12.13
2023-03-22T07:39:03.312Z,12.16
2023-03-22T07:42:13.186Z,12.34
2023-03-22T07:45:37.394Z,12.43
2023-03-22T07:49:01.527Z,12.56
2023-03-22T07:52:19.233Z,12.52
2023-03-22T07:55:25.810Z,12.69
2023-03-22T07:58:31.348Z,12.76
2023-03-22T08:01:37.478Z,12.93
2023-03-22T08:04:53.357Z,13.01
2023-03-22T08:08:18.491Z,13.15
2023-03-22T08:11:25.840Z,13.22
2023-03-22T08:14:36.547Z,13.37
2023-03-22T08:17:46.528Z,13.47
2023-03-22T08:21:00.583Z,13.58
2023-03-22T08:24:09.653Z,13.80
2023-03-22T08:27:29.996Z,13.93
2023-03-22T08:30:38.149Z,13.89
2023-03-22T08:33:44.103Z,13.95
2023-03-22T08:36:49.650Z,14.09
2023-03-22T08:39:56.545Z,14.20
2023-03-22T08:43:11.322Z,14.39
2023-03-22T08:46:17.668Z,14.43
2023-03-22T08:49:24.825Z,14.39
2023-03-22T08:52:42.673Z,14.46
2023-03-22T08:55:58.269Z,14.61
2023-03-22T08:59:26.964Z,14.80
2023-03-22T09:02:58.399Z,14.98
2023-03-22T09:06:04.305Z,14.97
2023-03-22T09:09:15.086Z,15.10
2023-03-22T09:12:23.125Z,15.25
2023-03-22T09:15:28.696Z,15.23
2023-03-22T09:18:47.382Z,15.43
2023-03-22T09:21:59.078Z,15.43
2023-03-22T09:25:13.445Z,15.38
2023-03-22T09:28:24.133Z,15.48
2023-03-22T09:31:31.380Z,15.57
2023-03-22T09:34:49.885Z,15.60
2023-03-22T09:37:56.579Z,15.67
2023-03-22T09:41:06.967Z,15.85
2023-03-22T09:44:41.700Z,16.00
2023-03-22T09:47:54.977Z,15.83
2023-03-22T09:51:02.941Z,15.92
2023-03-22T09:54:39.728Z,15.90
2023-03-22T09:58:02.716Z,15.94
2023-03-22T10:01:30.191Z,15.93
2023-03-22T10:05:17.684Z,15.97
2023-03-22T10:08:44.775Z,16.06
2023-03-22T10:11:56.797Z,16.19
2023-03-22T10:15:20.072Z,16.14
2023-03-22T10:18:37.532Z,16.35
2023-03-22T10:21:43.958Z,16.37
2023-03-22T10:24:52.661Z,16.50
2023-03-22T10:27:59.007Z,16.47
2023-03-22T10:31:06.040Z,16.93
2023-03-22T10:34:24.258Z,16.76
2023-03-22T10:37:36.352Z,16.82
2023-03-22T10:40:42.922Z,16.89
2023-03-22T10:43:55.897Z,17.02
2023-03-22T10:47:08.559Z,17.01
2023-03-22T10:50:22.541Z,17.13
2023-03-22T10:53:37.605Z,17.10
2023-03-22T10:56:45.047Z,17.10
2023-03-22T10:59:56.087Z,17.06
2023-03-22T11:03:02.066Z,17.33
2023-03-22T11:06:15.173Z,17.42
2023-03-22T11:09:23.769Z,17.40
2023-03-22T11:12:29.689Z,17.32
2023-03-22T11:15:40.124Z,17.51
2023-03-22T11:18:46.609Z,17.53
2023-03-22T11:21:52.758Z,17.61
2023-03-22T11:24:59.839Z,17.59
2023-03-22T11:28:05.203Z,17.83
2023-03-22T11:31:17.054Z,17.72
2023-03-22T11:34:24.866Z,17.65
2023-03-22T11:37:29.780Z,17.78
2023-03-22T11:40:37.203Z,18.00
2023-03-22T11:43:48.621Z,18.18
2023-03-22T11:47:01.145Z,17.90
2023-03-22T11:50:10.803Z,17.95
2023-03-22T11:53:19.408Z,18.01
2023-03-22T11:56:30.132Z,18.02
2023-03-22T11:59:46.634Z,17.99
2023-03-22T12:03:00.317Z,18.08
2023-03-22T12:06:17.143Z,18.18
2023-03-22T12:09:36.269Z,18.33
2023-03-22T12:13:16.016Z,18.29
2023-03-22T12:16:25.311Z,18.25
2023-03-22T12:19:30.930Z,18.19
2023-03-22T12:22:41.981Z,18.36
2023-03-22T12:26:05.601Z,18.39
2023-03-22T12:29:19.163Z,18.64
2023-03-22T12:32:42.398Z,18.60
2023-03-22T12:35:49.127Z,18.50
2023-03-22T12:38:58.423Z,18.79
2023-03-22T12:42:15.588Z,18.78
2023-03-22T12:45:26.054Z,18.73
2023-03-22T12:48:36.849Z,18.82
2023-03-22T12:51:44.209Z,18.84
2023-03-22T12:54:52.702Z,18.85
2023-03-22T12:57:58.777Z,18.88
2023-03-22T13:01:28.969Z,19.00
2023-03-22T13:04:37.420Z,18.95
2023-03-22T13:07:48.385Z,18.98
2023-03-22T13:11:01.707Z,19.32
2023-03-22T13:14:06.903Z,19.30
2023-03-22T13:17:13.627Z,19.26
2023-03-22T13:20:26.757Z,19.07
2023-03-22T13:23:32.896Z,19.28
2023-03-22T13:26:53.480Z,19.36
2023-03-22T13:29:59.996Z,19.50
2023-03-22T13:33:09.059Z,19.56
2023-03-22T13:36:25.605Z,19.44
2023-03-22T13:39:39.506Z,19.48
2023-03-22T13:42:44.971Z,19.54
2023-03-22T13:46:09.675Z,19.60
2023-03-22T13:49:27.049Z,19.46
2023-03-22T13:52:42.718Z,19.52
2023-03-22T13:55:52.309Z,19.66
2023-03-22T13:58:59.110Z,19.69
2023-03-22T14:02:18.889Z,19.66
2023-03-22T14:05:26.392Z,19.80
2023-03-22T14:08:34.958Z,19.80
2023-03-22T14:11:43.266Z,19.91
2023-03-22T14:14:57.553Z,19.88
2023-03-22T14:18:06.309Z,19.91
2023-03-22T14:21:21.659Z,20.09
